createdAt,value
2018-06-03T00:01:24.533Z,61.40
2018-06-03T00:04:28.178Z,58.90
2018-06-03T00:07:31.909Z,58.03
2018-06-03T00:10:35.551Z,62.07
2018-06-03T00:13:39.167Z,60.67
2018-06-03T00:16:42.674Z,61.67
2018-06-03T00:19:46.171Z,64.60
2018-06-03T00:22:49.959Z,63.27
2018-06-03T00:25:53.569Z,67.17
2018-06-03T00:28:57.028Z,65.20
2018-06-03T00:32:00.586Z,60.13
2018-06-03T00:35:04.190Z,60.37
2018-06-03T00:38:07.794Z,67.53
2018-06-03T00:41:11.431Z,62.87
2018-06-03T00:44:15.059Z,72.53
2018-06-03T00:47:18.794Z,67.47
2018-06-03T00:50:22.374Z,62.70
2018-06-03T00:53:26.010Z,71.87
2018-06-03T00:56:41.078Z,68.70
2018-06-03T00:59:44.881Z,71.93
2018-06-03T01:02:48.577Z,77.30
2018-06-03T01:05:52.205Z,70.33
2018-06-03T01:08:55.854Z,68.80
2018-06-03T01:11:59.740Z,68.13
2018-06-03T01:15:03.451Z,67.60
2018-06-03T01:18:07.087Z,66.37
2018-06-03T01:21:10.696Z,68.23
2018-06-03T01:24:14.309Z,70.73
2018-06-03T01:27:17.926Z,68.60
2018-06-03T01:30:21.551Z,68.60
2018-06-03T01:33:25.437Z,73.70
2018-06-03T01:36:29.065Z,65.83
2018-06-03T01:39:32.673Z,67.77
2018-06-03T01:42:36.302Z,71.57
2018-06-03T01:45:39.927Z,74.10
2018-06-03T01:48:43.557Z,69.87
2018-06-03T01:51:47.531Z,68.30
2018-06-03T01:54:51.694Z,69.60
2018-06-03T01:57:55.290Z,69.17
2018-06-03T02:00:58.923Z,66.17
2018-06-03T02:04:02.570Z,67.40
2018-06-03T02:07:06.191Z,71.27
2018-06-03T02:10:09.805Z,71.70
2018-06-03T02:13:13.436Z,76.97
2018-06-03T02:16:17.126Z,69.27
2018-06-03T02:19:20.779Z,72.37
2018-06-03T02:22:24.394Z,76.17
2018-06-03T02:25:28.024Z,74.60
2018-06-03T02:28:31.626Z,72.77
2018-06-03T02:31:40.241Z,74.13
2018-06-03T02:34:43.850Z,73.07
2018-06-03T02:37:48.785Z,76.27
2018-06-03T02:40:52.396Z,78.20
2018-06-03T02:43:56.029Z,74.07
2018-06-03T02:46:59.669Z,75.80
2018-06-03T02:50:03.294Z,77.43
2018-06-03T02:53:06.901Z,78.50
2018-06-03T02:56:10.534Z,75.43
2018-06-03T02:59:13.967Z,77.33
2018-06-03T03:02:17.501Z,74.27
2018-06-03T03:05:21.128Z,72.53
2018-06-03T03:08:24.573Z,71.57
2018-06-03T03:11:28.090Z,68.63
2018-06-03T03:14:31.728Z,73.40
2018-06-03T03:17:35.252Z,73.63
2018-06-03T03:20:38.799Z,78.33
2018-06-03T03:23:42.967Z,71.07
2018-06-03T03:26:46.606Z,72.30
2018-06-03T03:29:50.213Z,73.10
2018-06-03T03:32:53.858Z,75.93
2018-06-03T03:35:57.390Z,75.70
2018-06-03T03:39:00.956Z,75.37
2018-06-03T03:42:04.566Z,76.43
2018-06-03T03:45:08.265Z,73.63
2018-06-03T03:48:11.685Z,75.13
2018-06-03T03:51:15.243Z,72.83
2018-06-03T03:54:19.193Z,75.07
2018-06-03T03:57:22.736Z,71.93
2018-06-03T04:00:26.624Z,70.00
2018-06-03T04:03:30.258Z,64.80
2018-06-03T04:06:33.874Z,61.80
2018-06-03T04:09:37.498Z,57.80
2018-06-03T04:12:41.124Z,62.53
2018-06-03T04:15:44.737Z,58.33
2018-06-03T04:18:48.352Z,59.17
2018-06-03T04:21:51.989Z,62.67
2018-06-03T04:24:55.582Z,54.27
2018-06-03T04:27:59.219Z,54.43
2018-06-03T04:31:02.836Z,59.57
2018-06-03T04:34:06.487Z,55.37
2018-06-03T04:37:10.158Z,61.23
2018-06-03T04:40:13.787Z,52.67
2018-06-03T04:43:17.398Z,56.33
2018-06-03T04:46:21.013Z,61.37
2018-06-03T04:49:24.716Z,57.73
2018-06-03T04:52:28.341Z,51.83
2018-06-03T04:55:31.963Z,54.80
2018-06-03T04:58:35.596Z,51.53
2018-06-03T05:01:39.211Z,53.07
2018-06-03T05:04:42.840Z,51.87
2018-06-03T05:07:46.455Z,51.73
2018-06-03T05:10:50.146Z,55.17
2018-06-03T05:13:53.746Z,50.40
2018-06-03T05:16:57.403Z,51.63
2018-06-03T05:20:01.001Z,56.03
2018-06-03T05:23:04.973Z,58.57
2018-06-03T05:26:08.582Z,53.33
2018-06-03T05:29:12.238Z,51.43
2018-06-03T05:32:15.825Z,55.37
2018-06-03T05:35:19.450Z,56.70
2018-06-03T05:38:22.882Z,57.43
2018-06-03T05:41:26.467Z,55.07
2018-06-03T05:44:30.077Z,55.10
2018-06-03T05:47:33.701Z,55.57
2018-06-03T05:50:37.317Z,57.83
2018-06-03T05:53:40.942Z,57.10
2018-06-03T05:56:44.558Z,63.17
2018-06-03T05:59:48.001Z,57.87
2018-06-03T06:02:51.515Z,58.83
2018-06-03T06:05:55.162Z,65.50
2018-06-03T06:08:58.807Z,62.93
2018-06-03T06:12:02.406Z,66.47
2018-06-03T06:15:06.032Z,64.40
2018-06-03T06:18:09.658Z,70.70
2018-06-03T06:21:13.267Z,65.40
2018-06-03T06:24:16.709Z,66.20
2018-06-03T06:27:20.408Z,64.93
2018-06-03T06:30:24.044Z,70.33
2018-06-03T06:33:27.685Z,72.20
2018-06-03T06:36:31.310Z,71.93
2018-06-03T06:39:34.929Z,62.40
2018-06-03T06:42:38.563Z,67.40
2018-06-03T06:45:42.171Z,62.23
2018-06-03T06:48:45.915Z,65.73
2018-06-03T06:51:50.286Z,63.33
2018-06-03T06:54:54.017Z,61.37
2018-06-03T06:57:57.599Z,60.87
2018-06-03T07:01:01.459Z,66.60
2018-06-03T07:04:05.076Z,70.50
2018-06-03T07:07:08.737Z,65.37
2018-06-03T07:10:12.338Z,64.03
2018-06-03T07:13:15.872Z,58.33
2018-06-03T07:16:19.334Z,61.90
2018-06-03T07:19:23.098Z,62.33
2018-06-03T07:22:26.630Z,59.83
2018-06-03T07:25:30.293Z,55.35
2018-06-03T07:28:33.982Z,59.70
2018-06-03T07:31:37.927Z,61.77
2018-06-03T07:34:41.566Z,61.83
2018-06-03T07:37:45.196Z,63.53
2018-06-03T07:40:48.815Z,62.27
2018-06-03T07:43:52.453Z,61.63
2018-06-03T07:46:56.091Z,62.80
2018-06-03T07:50:00.067Z,58.77
2018-06-03T07:53:03.682Z,57.55
2018-06-03T07:56:07.350Z,61.40
2018-06-03T07:59:10.958Z,55.90
2018-06-03T08:02:14.590Z,59.23
2018-06-03T08:05:18.211Z,60.70
2018-06-03T08:08:21.856Z,65.12
2018-06-03T08:11:25.458Z,60.20
2018-06-03T08:14:29.094Z,57.90
2018-06-03T08:17:32.530Z,61.47
2018-06-03T08:20:36.079Z,57.00
2018-06-03T08:23:39.974Z,55.63
2018-06-03T08:26:43.607Z,54.13
2018-06-03T08:29:47.268Z,57.08
2018-06-03T08:32:50.866Z,50.92
2018-06-03T08:35:54.475Z,49.00
2018-06-03T08:38:58.109Z,52.43
2018-06-03T08:42:01.812Z,52.48
2018-06-03T08:45:05.447Z,50.63
2018-06-03T08:51:18.815Z,45.05
2018-06-03T08:54:22.359Z,46.92
2018-06-03T08:57:26.071Z,46.90
2018-06-03T09:00:29.841Z,47.03
2018-06-03T09:03:33.671Z,58.77
2018-06-03T09:06:37.125Z,49.58
2018-06-03T09:09:40.745Z,50.83
2018-06-03T09:12:44.375Z,53.33
2018-06-03T09:15:47.839Z,54.98
2018-06-03T09:18:52.457Z,53.73
2018-06-03T09:21:56.109Z,58.23
2018-06-03T09:24:59.746Z,50.28
2018-06-03T09:28:03.378Z,55.67
2018-06-03T09:31:07.276Z,55.52
2018-06-03T09:34:10.922Z,57.60
2018-06-03T09:37:14.373Z,53.23
2018-06-03T09:40:18.691Z,59.75
2018-06-03T09:43:22.313Z,63.05
2018-06-03T09:46:25.967Z,58.30
2018-06-03T09:49:29.620Z,62.53
2018-06-03T09:52:33.260Z,59.45
2018-06-03T09:55:43.416Z,60.05
2018-06-03T09:58:47.091Z,62.75
2018-06-03T10:01:50.757Z,69.65
2018-06-03T10:04:54.515Z,61.20
2018-06-03T10:07:58.114Z,58.83
2018-06-03T10:11:01.805Z,58.80
2018-06-03T10:14:05.445Z,53.98
2018-06-03T10:17:09.106Z,52.35
2018-06-03T10:20:13.068Z,52.13
2018-06-03T10:23:16.712Z,46.85
2018-06-03T10:26:20.391Z,44.00
2018-06-03T10:29:24.032Z,39.60
2018-06-03T10:32:27.681Z,40.12
2018-06-03T10:35:31.321Z,35.50
2018-06-03T10:38:34.945Z,37.00
2018-06-03T10:41:38.583Z,37.98
2018-06-03T10:44:42.207Z,38.33
2018-06-03T10:47:45.834Z,34.90
2018-06-03T10:50:49.455Z,35.15
2018-06-03T10:53:52.912Z,37.70
2018-06-03T10:56:56.483Z,38.73
2018-06-03T11:00:00.133Z,41.35
2018-06-03T11:03:03.738Z,39.78
2018-06-03T11:06:07.491Z,38.05
2018-06-03T11:09:11.126Z,40.85
2018-06-03T11:12:14.797Z,43.17
2018-06-03T11:15:18.421Z,39.60
2018-06-03T11:18:22.099Z,41.73
2018-06-03T11:21:25.727Z,43.05
2018-06-03T11:24:29.384Z,46.70
2018-06-03T11:27:32.888Z,46.60
2018-06-03T11:30:36.298Z,41.45
2018-06-03T11:33:39.824Z,40.43
2018-06-03T11:36:43.499Z,42.17
2018-06-03T11:39:47.158Z,43.58
2018-06-03T11:42:50.891Z,42.95
2018-06-03T11:45:54.494Z,40.80
2018-06-03T11:48:58.170Z,41.35
2018-06-03T11:52:08.327Z,37.48
2018-06-03T11:55:11.990Z,36.58
2018-06-03T11:58:54.627Z,37.05
2018-06-03T12:01:58.269Z,37.48
2018-06-03T12:05:01.710Z,34.45
2018-06-03T12:08:05.304Z,36.28
2018-06-03T12:11:08.972Z,31.87
2018-06-03T12:14:12.616Z,33.95
2018-06-03T12:17:16.278Z,28.35
2018-06-03T12:20:19.894Z,25.30
2018-06-03T12:23:23.524Z,25.35
2018-06-03T12:26:27.170Z,23.07
2018-06-03T12:29:30.792Z,18.42
2018-06-03T12:32:34.459Z,24.07
2018-06-03T12:35:38.091Z,20.80
2018-06-03T12:38:42.000Z,18.00
2018-06-03T12:41:45.471Z,16.82
2018-06-03T12:44:49.025Z,15.85
2018-06-03T12:47:52.631Z,14.80
2018-06-03T12:50:56.246Z,15.68
2018-06-03T12:53:59.879Z,13.25
2018-06-03T12:57:03.523Z,14.00
2018-06-03T13:00:07.148Z,14.45
2018-06-03T13:03:10.896Z,13.60
2018-06-03T13:06:14.508Z,12.45
2018-06-03T13:09:18.143Z,12.58
2018-06-03T13:12:23.293Z,11.03
2018-06-03T13:15:26.949Z,13.28
2018-06-03T13:18:30.402Z,12.30
2018-06-03T13:21:33.960Z,13.30
2018-06-03T13:24:37.412Z,12.07
2018-06-03T13:27:40.996Z,12.90
2018-06-03T13:30:44.628Z,11.48
2018-06-03T13:33:48.389Z,10.88
2018-06-03T13:36:52.071Z,11.30
2018-06-03T13:39:55.772Z,9.33
2018-06-03T13:42:59.369Z,11.80
2018-06-03T13:46:03.041Z,9.13
2018-06-03T13:49:06.578Z,10.10
2018-06-03T13:52:10.233Z,8.88
2018-06-03T13:55:13.886Z,8.65
2018-06-03T13:58:17.336Z,9.48
2018-06-03T14:01:20.904Z,10.00
2018-06-03T14:04:24.533Z,7.87
2018-06-03T14:07:28.153Z,7.12
2018-06-03T14:10:31.790Z,9.63
2018-06-03T14:13:35.221Z,7.72
2018-06-03T14:16:38.890Z,7.53
2018-06-03T14:19:42.591Z,11.73
2018-06-03T14:22:46.226Z,8.13
2018-06-03T14:25:49.859Z,8.28
2018-06-03T14:28:54.578Z,10.00
2018-06-03T14:31:58.381Z,6.78
2018-06-03T14:35:01.963Z,7.33
2018-06-03T14:38:05.613Z,7.30
2018-06-03T14:41:09.646Z,16.12
2018-06-03T14:44:13.368Z,7.72
2018-06-03T14:47:16.948Z,7.28
2018-06-03T14:50:20.301Z,10.08
2018-06-03T14:53:23.914Z,7.92
2018-06-03T14:56:27.563Z,8.68
2018-06-03T14:59:31.207Z,8.45
2018-06-03T15:02:34.911Z,9.30
2018-06-03T15:05:38.540Z,9.13
2018-06-03T15:08:42.150Z,9.95
2018-06-03T15:11:45.813Z,8.98
2018-06-03T15:14:49.270Z,9.05
2018-06-03T15:17:52.917Z,10.30
2018-06-03T15:20:56.545Z,11.05
2018-06-03T15:24:00.230Z,12.45
2018-06-03T15:27:03.917Z,10.08
2018-06-03T15:30:07.552Z,9.93
2018-06-03T15:33:11.160Z,9.73
2018-06-03T15:36:14.887Z,10.32
2018-06-03T15:39:18.490Z,10.08
2018-06-03T15:42:22.192Z,9.58
2018-06-03T15:45:25.625Z,12.60
2018-06-03T15:48:29.212Z,10.80
2018-06-03T15:51:32.872Z,10.82
2018-06-03T15:54:36.498Z,12.18
2018-06-03T15:57:40.301Z,8.83
2018-06-03T16:00:43.836Z,11.15
2018-06-03T16:03:47.475Z,10.75
2018-06-03T16:06:51.120Z,12.50
2018-06-03T16:09:54.558Z,10.25
2018-06-03T16:12:58.113Z,11.63
2018-06-03T16:16:01.785Z,10.53
2018-06-03T16:19:05.541Z,11.12
2018-06-03T16:22:09.130Z,11.93
2018-06-03T16:25:12.757Z,10.88
2018-06-03T16:28:16.423Z,12.45
2018-06-03T16:31:20.086Z,12.82
2018-06-03T16:34:23.683Z,11.08
2018-06-03T16:37:27.351Z,11.65
2018-06-03T16:40:30.787Z,13.13
2018-06-03T16:43:34.362Z,10.98
2018-06-03T16:46:38.008Z,11.53
2018-06-03T16:49:41.653Z,14.20
2018-06-03T16:52:45.277Z,17.55
2018-06-03T16:55:48.939Z,11.73
2018-06-03T16:58:52.574Z,12.28
2018-06-03T17:01:56.195Z,14.93
2018-06-03T17:04:59.814Z,13.13
2018-06-03T17:08:03.460Z,14.03
2018-06-03T17:11:07.166Z,14.55
2018-06-03T17:14:11.047Z,13.93
2018-06-03T17:17:14.678Z,14.47
2018-06-03T17:20:18.361Z,22.27
2018-06-03T17:23:21.807Z,14.90
2018-06-03T17:26:25.437Z,16.42
2018-06-03T17:29:29.054Z,15.93
2018-06-03T17:32:32.710Z,16.57
2018-06-03T17:35:36.337Z,17.45
2018-06-03T17:38:40.301Z,16.57
2018-06-03T17:41:43.985Z,19.55
2018-06-03T17:44:47.599Z,17.67
2018-06-03T17:47:51.232Z,16.17
2018-06-03T17:50:54.874Z,18.00
2018-06-03T17:53:58.554Z,16.02
2018-06-03T17:57:02.232Z,14.45
2018-06-03T18:00:05.846Z,19.85
2018-06-03T18:03:09.507Z,18.00
2018-06-03T18:06:13.181Z,19.73
2018-06-03T18:09:16.911Z,15.70
2018-06-03T18:12:20.499Z,15.25
2018-06-03T18:15:23.965Z,15.28
2018-06-03T18:18:27.504Z,18.80
2018-06-03T18:21:30.968Z,14.65
2018-06-03T18:24:34.496Z,16.12
2018-06-03T18:27:37.966Z,16.60
2018-06-03T18:30:41.495Z,14.70
2018-06-03T18:33:45.005Z,20.65
2018-06-03T18:36:48.528Z,20.10
2018-06-03T18:39:52.170Z,20.23
2018-06-03T18:42:55.811Z,16.70
2018-06-03T18:45:59.510Z,22.30
2018-06-03T18:49:03.216Z,18.40
2018-06-03T18:52:06.833Z,22.52
2018-06-03T18:55:10.519Z,22.45
2018-06-03T18:58:14.153Z,21.37
2018-06-03T19:01:24.370Z,18.27
2018-06-03T19:04:27.808Z,19.12
2018-06-03T19:07:31.330Z,20.50
2018-06-03T19:10:34.982Z,21.12
2018-06-03T19:13:38.689Z,20.62
2018-06-03T19:16:42.392Z,24.87
2018-06-03T19:19:46.021Z,20.48
2018-06-03T19:22:49.736Z,20.68
2018-06-03T19:25:53.427Z,20.85
2018-06-03T19:28:57.072Z,19.87
2018-06-03T19:32:00.737Z,21.23
2018-06-03T19:35:04.793Z,22.45
2018-06-03T19:38:08.425Z,18.37
2018-06-03T19:41:12.059Z,20.25
2018-06-03T19:44:15.684Z,19.17
2018-06-03T19:47:19.332Z,18.92
2018-06-03T19:50:22.954Z,22.95
2018-06-03T19:53:26.600Z,21.87
2018-06-03T19:56:30.227Z,21.50
2018-06-03T19:59:33.792Z,22.37
2018-06-03T20:02:37.310Z,23.20
2018-06-03T20:05:40.974Z,25.57
2018-06-03T20:08:44.596Z,21.77
2018-06-03T20:11:48.247Z,20.95
2018-06-03T20:14:51.864Z,22.10
2018-06-03T20:17:55.614Z,25.32
2018-06-03T20:20:59.398Z,24.02
2018-06-03T20:24:03.053Z,20.70
2018-06-03T20:27:06.486Z,22.37
2018-06-03T20:30:10.138Z,21.90
2018-06-03T20:33:13.763Z,23.77
2018-06-03T20:36:17.425Z,23.30
2018-06-03T20:39:21.039Z,23.67
2018-06-03T20:42:24.720Z,22.32
2018-06-03T20:45:28.397Z,22.80
2018-06-03T20:48:32.022Z,20.33
2018-06-03T20:51:36.466Z,22.50
2018-06-03T20:54:40.099Z,20.57
2018-06-03T20:57:43.715Z,21.67
2018-06-03T21:00:47.457Z,22.43
2018-06-03T21:03:51.067Z,24.70
2018-06-03T21:06:54.732Z,23.70
2018-06-03T21:09:58.364Z,22.00
2018-06-03T21:13:02.003Z,23.10
2018-06-03T21:16:05.658Z,21.93
2018-06-03T21:19:09.278Z,23.30
2018-06-03T21:22:12.878Z,22.27
2018-06-03T21:25:16.645Z,23.23
2018-06-03T21:28:20.265Z,24.00
2018-06-03T21:31:23.926Z,23.23
2018-06-03T21:34:27.358Z,25.73
2018-06-03T21:37:30.884Z,25.90
2018-06-03T21:40:34.573Z,24.67
2018-06-03T21:43:38.212Z,27.17
2018-06-03T21:46:42.613Z,24.37
2018-06-03T21:49:46.254Z,25.70
2018-06-03T21:52:49.684Z,27.20
2018-06-03T21:55:53.236Z,24.63
2018-06-03T21:58:56.792Z,23.40
2018-06-03T22:02:00.403Z,23.57
2018-06-03T22:05:04.043Z,24.27
2018-06-03T22:08:07.499Z,25.13
2018-06-03T22:11:11.026Z,25.13
2018-06-03T22:14:14.671Z,25.23
2018-06-03T22:17:18.299Z,26.87
2018-06-03T22:20:21.930Z,25.60
2018-06-03T22:23:25.542Z,25.87
2018-06-03T22:29:39.232Z,25.83
2018-06-03T22:32:42.870Z,25.43
2018-06-03T22:35:46.495Z,24.63
2018-06-03T22:38:50.125Z,25.97
2018-06-03T22:41:53.775Z,25.50
2018-06-03T22:44:57.410Z,25.43
2018-06-03T22:48:01.116Z,25.80
2018-06-03T22:51:04.759Z,26.83
2018-06-03T22:54:08.378Z,27.63
2018-06-03T22:57:47.741Z,26.13
2018-06-03T23:00:51.823Z,24.80
2018-06-03T23:03:55.489Z,28.00
2018-06-03T23:06:59.082Z,27.13
2018-06-03T23:10:02.857Z,25.37
2018-06-03T23:13:06.820Z,25.73
2018-06-03T23:16:10.469Z,28.17
2018-06-03T23:19:14.099Z,26.97
2018-06-03T23:22:17.561Z,26.57
2018-06-03T23:25:21.084Z,27.33
2018-06-03T23:28:24.724Z,25.57
2018-06-03T23:31:28.407Z,25.43
2018-06-03T23:34:31.857Z,26.87
2018-06-03T23:37:35.382Z,25.43
2018-06-03T23:40:39.011Z,31.30
2018-06-03T23:43:42.551Z,26.13
2018-06-03T23:46:46.115Z,27.17
2018-06-03T23:49:49.596Z,27.17
2018-06-03T23:52:52.966Z,26.60
2018-06-03T23:55:56.628Z,26.93
2018-06-03T23:59:00.261Z,26.43
